• Join FlightAware (Why Join?)
  • Login
  • US Flag 
10:03PM EDT


 

Airport Tracker/Info


-or-


 

Live Flight TrackerFlight Track Log ✈ SWA561 ✈ 21-Apr-2013 ✈ KOAK - KLAX

Flight Track Log - Related Links

Times and Time Zones

All times are in EDT time to prevent confusion due to time zone crossing. See the SWA561 flight status page for this flight to view local times or setup timezone preferences in your user account.

Time Position Orientation Groundspeed Altitude Reporting Facility
EDT Latitude Longitude Course Direction KTS MPH feet Rate Location/Type
07:49PM 37.7333 -122.2500 107° East 142 163 1,500  Level Northern Cal TRACON
07:50PM 37.7353 -122.2639 280° West 151 174 1,800 1,800 Climbing Oakland Center
07:51PM 37.7269 -122.3264 260° West 223 257 4,100 2,940 Climbing Oakland Center
07:52PM 37.6639 -122.3806 214° Southwest 267 307 7,900 3,360 Climbing Oakland Center
07:53PM 37.5889 -122.4267 206° Southwest 309 356 11,000 3,540 Climbing Oakland Center
07:54PM 37.4756 -122.4056 172° South 350 403 15,100 3,600 Climbing Oakland Center
07:55PM 37.2466 -122.2699 107° East  Level FlightAware Approximate
07:55PM 37.4058 -122.3108 133° Southeast 368 423 18,400  Level Oakland Center
07:56PM 37.3325 -122.2094 132° Southeast 391 450 21,200 2,700 Climbing Oakland Center
07:57PM 37.2547 -122.1039 133° Southeast 410 472 24,000 2,520 Climbing Oakland Center
07:58PM 37.1756 -121.9925 132° Southeast 426 490 26,400 2,160 Climbing Oakland Center
07:59PM 37.0925 -121.8794 133° Southeast 441 507 28,500 1,980 Climbing Oakland Center
08:00PM 37.0056 -121.7650 134° Southeast 452 520 30,500 1,800 Climbing Oakland Center
08:01PM 36.9164 -121.6481 134° Southeast 464 534 32,300 2,160 Climbing Oakland Center
08:02PM 36.8122 -121.5058 132° Southeast 462 532 35,000 1,980 Climbing Oakland Center
08:03PM 36.7350 -121.4006 132° Southeast 460 529 36,400 1,260 Climbing Oakland Center
08:04PM 36.6472 -121.2828 133° Southeast 464 534 37,700 1,020 Climbing Oakland Center
08:05PM 36.5578 -121.1642 133° Southeast 469 540 38,500 600 Climbing Oakland Center
08:06PM 36.4475 -121.0178 133° Southeast 481 554 39,000 240 Climbing Oakland Center
08:07PM 36.3553 -120.8969 133° Southeast 483 556 39,000  Level Oakland Center
08:08PM 36.2622 -120.7742 133° Southeast 487 560 39,000  Level Oakland Center
08:09PM 36.1675 -120.6531 134° Southeast 488 562 39,000  Level Oakland Center
08:10PM 36.0742 -120.5272 133° Southeast 494 568 39,000  Level Oakland Center
08:11PM 35.9800 -120.4047 134° Southeast 489 563 39,000  Level Oakland Center
08:12PM 35.8856 -120.2842 134° Southeast 485 558 39,000  Level Oakland Center
08:13PM 35.7908 -120.1622 134° Southeast 487 560 39,000  Level Oakland Center
08:14PM 35.6964 -120.0419 134° Southeast 485 558 39,000  Level Oakland Center
08:15PM 35.5947 -119.9317 139° Southeast 481 554 39,000  Level Oakland Center
08:16PM 35.4828 -119.8367 145° Southeast 482 555 39,000  Level Oakland Center
08:17PM 35.3719 -119.7408 145° Southeast 483 556 39,000  Level Oakland Center
08:18PM 35.3281 -119.7028 145° Southeast 487 560 39,000  Level Los Angeles Center
08:19PM 35.2181 -119.6081 145° Southeast 482 555 39,000 -1,140 Level Los Angeles Center
08:20PM 35.1089 -119.5150 145° Southeast 479 551 36,700 -3,060 Descending Los Angeles Center
08:21PM 34.9783 -119.4028 145° Southeast 478 550 32,700 -3,600 Descending Los Angeles Center
08:22PM 34.8675 -119.3094 145° Southeast 481 554 29,300 -3,000 Descending Los Angeles Center
08:23PM 34.7594 -119.2181 145° Southeast 476 548 26,500 -2,640 Descending Los Angeles Center
08:24PM 34.6558 -119.1325 146° Southeast 456 525 23,900 -2,580 Descending Los Angeles Center
08:25PM 34.5511 -119.0439 145° Southeast 439 505 21,200 -2,520 Descending Los Angeles Center
08:26PM 34.4556 -118.9653 146° Southeast 417 480 18,700 -2,460 Descending Los Angeles Center
08:27PM 34.3628 -118.8878 145° Southeast 405 466 16,200 -2,700 Descending Los Angeles Center
08:28PM 34.2408 -118.8383 161° South 385 443 13,200 -2,340 Descending Los Angeles Center
08:29PM 34.1419 -118.8019 163° South 374 430 11,400 -1,560 Descending Los Angeles Center
08:30PM 34.0497 -118.7600 159° South 338 389 10,000 -780 Descending Los Angeles Center
08:31PM 34.0292 -118.6592 104° East 304 350 9,900 -780 Descending Los Angeles Center
08:32PM 34.0197 -118.5606 97° East 297 342 8,400 -1,440 Descending Los Angeles Center
08:33PM 34.0106 -118.4569 96° East 288 331 7,000 -1,200 Descending Los Angeles Center
08:34PM 34.0206 -118.3800 81° East 275 316 5,900 -780 Descending Los Angeles Center
08:35PM 34.0322 -118.2783 82° East 260 299 5,500 -1,140 Descending Los Angeles Center
08:36PM 34.0050 -118.2406 131° Southeast 208 239 3,600 -1,740 Descending Los Angeles Center
08:37PM 33.9747 -118.2900 234° Southwest 189 217 2,000 -1,200 Descending Los Angeles Center
08:38PM 33.9583 -118.3392 248° West 171 197 1,200 -780 Descending Los Angeles Center
08:39PM 33.9553 -118.3839 265° West 148 170 400 -540 Descending Los Angeles Center
08:40PM 33.9497 -118.4239 261° West 143 165 100 -300 Descending Los Angeles Center
08:42PM 33.9425 -118.4081 90° East  Level Estimated
08:49PM 33.9425 -118.4081 228° Southwest  Level Estimated